sensor_id;sensor_type;location;lat;lon;timestamp;pressure;altitude;pressure_sealevel;temperature;humidity
15558;BME280;7880;50.110;9.372;2023-11-21T00:02:47;7.850271330872784;;;7.75;100.0
15558;BME280;7880;50.110;9.372;2023-11-21T00:07:55;7.76959700352163;;;7.75;100.0
15558;BME280;7880;50.110;9.372;2023-11-21T00:12:55;7.840187035879353;;;7.75;100.0
15558;BME280;7880;50.110;9.372;2023-11-21T00:18:00;7.920861428423086;;;7.812;100.0
15558;BME280;7880;50.110;9.372;2023-11-21T00:22:59;7.860355627030367;;;7.75;100.0
15558;BME280;7880;50.110;9.372;2023-11-21T00:28:03;7.744386291503906;;;7.687;100.0
15558;BME280;7880;50.110;9.372;2023-11-21T00:33:08;7.734302008734085;;;7.562;100.0
15558;BME280;7880;50.110;9.372;2023-11-21T00:38:13;7.8149763034889475;;;7.75;100.0
15558;BME280;7880;50.110;9.372;2023-11-21T00:43:14;7.830102742050076;;;7.75;100.0
15558;BME280;7880;50.110;9.372;2023-11-21T00:48:19;7.820018449384952;;;7.75;100.0
15558;BME280;7880;50.110;9.372;2023-11-21T00:53:33;7.860355627030367;;;7.75;100.0
15558;BME280;7880;50.110;9.372;2023-11-21T00:58:26;7.895650672749616;;;7.75;100.0
15558;BME280;7880;50.110;9.372;2023-11-21T01:03:47;7.8704399243521035;;;7.812;100.0
15558;BME280;7880;50.110;9.372;2023-11-21T01:08:34;7.820018449384952;;;7.75;100.0
15558;BME280;7880;50.110;9.372;2023-11-21T01:13:41;7.860355627030367;;;7.812;100.0
15558;BME280;7880;50.110;9.372;2023-11-21T01:18:43;7.895650672749616;;;7.812;100.0
15558;BME280;7880;50.110;9.372;2023-11-21T01:23:44;7.905734974145889;;;7.75;100.0
15558;BME280;7880;50.110;9.372;2023-11-21T01:28:55;7.809934157883982;;;7.687;100.0
15558;BME280;7880;50.110;9.372;2023-11-21T01:33:57;7.845229183230549;;;7.75;100.0
15558;BME280;7880;50.110;9.372;2023-11-21T01:39:16;7.996493739099241;;;7.875;100.0
15558;BME280;7880;50.110;9.372;2023-11-21T01:44:13;7.890608522488037;;;7.812;100.0
15558;BME280;7880;50.110;9.372;2023-11-21T01:49:36;7.87548207344953;;;7.812;100.0
15558;BME280;7880;50.110;9.372;2023-11-21T01:54:33;7.885566372517497;;;7.812;100.0
15558;BME280;7880;50.110;9.372;2023-11-21T01:59:44;7.935987885319628;;;7.875;100.0
15558;BME280;7880;50.110;9.372;2023-11-21T02:04:47;7.915819276706316;;;7.875;100.0
15558;BME280;7880;50.110;9.372;2023-11-21T02:09:46;7.885566372517497;;;7.812;100.0
15558;BME280;7880;50.110;9.372;2023-11-21T02:14:54;7.930945732729742;;;7.812;100.0
15558;BME280;7880;50.110;9.372;2023-11-21T02:19:58;7.799849867547164;;;7.812;100.0
15558;BME280;7880;50.110;9.372;2023-11-21T02:25:00;7.87548207344953;;;7.812;100.0
15558;BME280;7880;50.110;9.372;2023-11-21T02:30:14;7.744386291503906;;;7.687;100.0
15558;BME280;7880;50.110;9.372;2023-11-21T02:35:12;7.764554860536009;;;7.687;100.0
15558;BME280;7880;50.110;9.372;2023-11-21T02:40:18;7.910777125280584;;;7.75;100.0
15558;BME280;7880;50.110;9.372;2023-11-21T02:45:18;7.840187035879353;;;7.75;100.0
15558;BME280;7880;50.110;9.372;2023-11-21T02:50:26;7.7897655783744995;;;7.687;100.0
15558;BME280;7880;50.110;9.372;2023-11-21T02:55:26;7.809934157883982;;;7.75;100.0
15558;BME280;7880;50.110;9.372;2023-11-21T03:00:30;7.779681290365988;;;7.75;100.0
15558;BME280;7880;50.110;9.372;2023-11-21T03:05:58;7.729259867785731;;;7.687;100.0
15558;BME280;7880;50.110;9.372;2023-11-21T03:10:43;7.779681290365988;;;7.687;100.0
15558;BME280;7880;50.110;9.372;2023-11-21T03:15:45;7.809934157883982;;;7.687;100.0
15558;BME280;7880;50.110;9.372;2023-11-21T03:20:51;7.69396488929633;;;7.562;100.0
15558;BME280;7880;50.110;9.372;2023-11-21T03:26:18;7.714133446686901;;;7.625;100.0
15558;BME280;7880;50.110;9.372;2023-11-21T03:31:04;7.668754199106479;;;7.562;100.0
15558;BME280;7880;50.110;9.372;2023-11-21T03:36:06;7.799849867547164;;;7.687;100.0
15558;BME280;7880;50.110;9.372;2023-11-21T03:41:12;7.739344149973476;;;7.687;100.0
15558;BME280;7880;50.110;9.372;2023-11-21T03:46:18;7.699007028207416;;;7.625;100.0
15558;BME280;7880;50.110;9.372;2023-11-21T03:51:30;7.704049167409539;;;7.625;100.0
15558;BME280;7880;50.110;9.372;2023-11-21T03:56:35;7.59816430528299;;;7.625;100.0
15558;BME280;7880;50.110;9.372;2023-11-21T04:01:45;7.567911511106649;;;7.562;100.0
15558;BME280;7880;50.110;9.372;2023-11-21T04:06:42;7.577995774667943;;;7.562;100.0
15558;BME280;7880;50.110;9.372;2023-11-21T04:11:48;7.542700857296586;;;7.5;100.0
15558;BME280;7880;50.110;9.372;2023-11-21T04:16:51;7.628417109936708;;;7.562;100.0
15558;BME280;7880;50.110;9.372;2023-11-21T04:21:56;7.668754199106479;;;7.562;100.0
15558;BME280;7880;50.110;9.372;2023-11-21T04:27:05;7.7242177271284165;;;7.625;100.0
15558;BME280;7880;50.110;9.372;2023-11-21T04:32:25;7.58808003939339;;;7.5;100.0
15558;BME280;7880;50.110;9.372;2023-11-21T04:37:26;7.5275744685030075;;;7.5;100.0
15558;BME280;7880;50.110;9.372;2023-11-21T04:42:35;7.325889534881571;;;7.375;100.0
15558;BME280;7880;50.110;9.372;2023-11-21T04:47:38;7.270426259771921;;;7.187;100.0
15558;BME280;7880;50.110;9.372;2023-11-21T04:52:42;7.502363826334476;;;7.312;100.0
15558;BME280;7880;50.110;9.372;2023-11-21T04:57:47;7.290594719373621;;;7.25;100.0
15558;BME280;7880;50.110;9.372;2023-11-21T05:02:45;7.174626140255714;;;7.187;100.0
15558;BME280;7880;50.110;9.372;2023-11-21T05:07:50;7.381352845206857;;;7.25;100.0
15558;BME280;7880;50.110;9.372;2023-11-21T05:12:54;7.270426259771921;;;7.187;100.0
15558;BME280;7880;50.110;9.372;2023-11-21T05:18:00;7.114120855747023;;;7.062;100.0
15558;BME280;7880;50.110;9.372;2023-11-21T05:23:07;7.204878798226128;;;7.125;100.0
15558;BME280;7880;50.110;9.372;2023-11-21T05:27:09;7.3359737705031876;;;7.187;100.0
15558;BME280;7880;50.110;9.372;2023-11-21T05:32:12;7.320847417507321;;;7.187;100.0
15558;BME280;7880;50.110;9.372;2023-11-21T05:37:17;7.2855526040366385;;;7.187;100.0
15558;BME280;7880;50.110;9.372;2023-11-21T05:42:23;7.451942563825287;;;7.312;100.0
15558;BME280;7880;50.110;9.372;2023-11-21T05:47:30;7.320847417507321;;;7.312;100.0
15558;BME280;7880;50.110;9.372;2023-11-21T05:52:32;7.35614224523888;;;7.312;100.0
15558;BME280;7880;50.110;9.372;2023-11-21T05:57:38;7.346058007288957;;;7.25;100.0
15558;BME280;7880;50.110;9.372;2023-11-21T06:02:40;7.456984688766534;;;7.312;100.0
15558;BME280;7880;50.110;9.372;2023-11-21T06:07:46;7.416647697385633;;;7.375;100.0
15558;BME280;7880;50.110;9.372;2023-11-21T06:12:52;7.3763107246311845;;;7.312;100.0
15558;BME280;7880;50.110;9.372;2023-11-21T06:17:57;7.416647697385633;;;7.375;100.0
15558;BME280;7880;50.110;9.372;2023-11-21T06:23:10;7.446900439175079;;;7.375;100.0
15558;BME280;7880;50.110;9.372;2023-11-21T06:28:18;7.421689820289612;;;7.375;100.0
15558;BME280;7880;50.110;9.372;2023-11-21T06:33:39;7.5074059541861065;;;7.375;100.0
15558;BME280;7880;50.110;9.372;2023-11-21T06:38:32;7.351100126118399;;;7.312;100.0
15558;BME280;7880;50.110;9.372;2023-11-21T06:43:24;7.341015888750553;;;7.25;100.0
15558;BME280;7880;50.110;9.372;2023-11-21T06:48:30;7.325889534881571;;;7.25;100.0
15558;BME280;7880;50.110;9.372;2023-11-21T06:53:36;7.320847417507321;;;7.25;100.0
15558;BME280;7880;50.110;9.372;2023-11-21T06:58:35;7.446900439175079;;;7.312;100.0
15558;BME280;7880;50.110;9.372;2023-11-21T07:03:44;7.472111065336503;;;7.375;100.0
15558;BME280;7880;50.110;9.372;2023-11-21T07:09:01;7.537658727407688;;;7.437;100.0
15558;BME280;7880;50.110;9.372;2023-11-21T07:14:07;7.603206438664347;;;7.5;100.0
15558;BME280;7880;50.110;9.372;2023-11-21T07:19:13;7.729259867785731;;;7.562;100.0
15558;BME280;7880;50.110;9.372;2023-11-21T07:24:11;7.749428433325375;;;7.625;100.0
15558;BME280;7880;50.110;9.372;2023-11-21T07:29:14;7.719175586762139;;;7.562;100.0
15558;BME280;7880;50.110;9.372;2023-11-21T07:34:19;7.719175586762139;;;7.562;100.0
15558;BME280;7880;50.110;9.372;2023-11-21T07:39:22;7.58808003939339;;;7.5;100.0
15558;BME280;7880;50.110;9.372;2023-11-21T07:44:36;7.59816430528299;;;7.5;100.0
15558;BME280;7880;50.110;9.372;2023-11-21T07:49:34;7.628417109936708;;;7.5;100.0
15558;BME280;7880;50.110;9.372;2023-11-21T07:54:38;7.749428433325375;;;7.562;100.0
15558;BME280;7880;50.110;9.372;2023-11-21T07:59:45;7.830102742050076;;;7.687;100.0
15558;BME280;7880;50.110;9.372;2023-11-21T08:04:51;7.890608522488037;;;7.75;100.0
15558;BME280;7880;50.110;9.372;2023-11-21T08:09:54;7.699007028207416;;;7.625;100.0
15558;BME280;7880;50.110;9.372;2023-11-21T08:15:09;7.648585652193288;;;7.5;100.0
15558;BME280;7880;50.110;9.372;2023-11-21T08:20:10;7.6788384743093046;;;7.562;100.0
15558;BME280;7880;50.110;9.372;2023-11-21T08:25:05;7.850271330872784;;;7.687;100.0
15558;BME280;7880;50.110;9.372;2023-11-21T08:30:10;7.799849867547164;;;7.687;100.0
15558;BME280;7880;50.110;9.372;2023-11-21T08:35:18;7.709091306902701;;;7.625;100.0
15558;BME280;7880;50.110;9.372;2023-11-21T08:40:17;7.759512717841426;;;7.687;100.0
15558;BME280;7880;50.110;9.372;2023-11-21T08:45:19;7.845229183230549;;;7.687;100.0
15558;BME280;7880;50.110;9.372;2023-11-21T08:50:25;7.825060595571995;;;7.687;100.0
15558;BME280;7880;50.110;9.372;2023-11-21T08:55:37;7.809934157883982;;;7.75;100.0
15558;BME280;7880;50.110;9.372;2023-11-21T09:00:34;7.981367271725321;;;7.812;100.0
15558;BME280;7880;50.110;9.372;2023-11-21T09:05:45;7.946072191372513;;;7.812;100.0
15558;BME280;7880;50.110;9.372;2023-11-21T09:10:45;8.062041794654215;;;7.937;100.0
15558;BME280;7880;50.110;9.372;2023-11-21T09:15:55;8.102379084058338;;;8.0;100.0
15558;BME280;7880;50.110;9.372;2023-11-21T09:20:46;8.001535895472625;;;7.875;100.0
15558;BME280;7880;50.110;9.372;2023-11-21T09:25:50;8.293981463095406;;;8.125;100.0
15558;BME280;7880;50.110;9.372;2023-11-21T09:30:57;8.253644085215637;;;8.125;100.0
15558;BME280;7880;50.110;9.372;2023-11-21T09:35:57;8.243559743656078;;;8.125;100.0
15558;BME280;7880;50.110;9.372;2023-11-21T09:41:14;8.147758556902408;;;8.062;100.0
15558;BME280;7880;50.110;9.372;2023-11-21T09:46:06;8.162885053089122;;;8.0;100.0
15558;BME280;7880;50.110;9.372;2023-11-21T09:51:10;8.218348894850351;;;8.062;100.0
15558;BME280;7880;50.110;9.372;2023-11-21T09:56:11;8.30406581047573;;;8.125;100.0
15558;BME280;7880;50.110;9.372;2023-11-21T10:01:16;8.329276684019714;;;8.187;100.0
15558;BME280;7880;50.110;9.372;2023-11-21T10:06:31;8.233475403260673;;;8.187;100.0
15558;BME280;7880;50.110;9.372;2023-11-21T10:11:27;8.324234508728841;;;8.187;100.0
15558;BME280;7880;50.110;9.372;2023-11-21T10:16:28;8.475499894056702;;;8.312;100.0
15558;BME280;7880;50.110;9.372;2023-11-21T10:21:30;8.445246796036372;;;8.312;100.0
15558;BME280;7880;50.110;9.372;2023-11-21T10:26:39;8.485584262391786;;;8.312;100.0
15558;BME280;7880;50.110;9.372;2023-11-21T10:31:21;8.662060896703043;;;8.5;100.0
15558;BME280;7880;50.110;9.372;2023-11-21T10:36:26;8.73769384911866;;;8.625;100.0
15558;BME280;7880;50.110;9.372;2023-11-21T10:41:27;8.465415526885772;;;8.375;100.0
15558;BME280;7880;50.110;9.372;2023-11-21T10:46:35;8.641892120451667;;;8.437;100.0
15558;BME280;7880;50.110;9.372;2023-11-21T10:51:46;8.495668631891022;;;8.437;100.0
15558;BME280;7880;50.110;9.372;2023-11-21T10:56:45;8.65701870220364;;;8.562;100.0
15558;BME280;7880;50.110;9.372;2023-11-21T11:01:45;8.747778247721726;;;8.625;100.0
15558;BME280;7880;50.110;9.372;2023-11-21T11:06:57;8.541048309043981;;;8.437;100.0
15558;BME280;7880;50.110;9.372;2023-11-21T11:11:51;8.687271873565624;;;8.5;100.0
15558;BME280;7880;50.110;9.372;2023-11-21T11:16:55;8.828453478455776;;;8.687;100.0
15558;BME280;7880;50.110;9.372;2023-11-21T11:22:10;8.697356266347924;;;8.562;100.0
15558;BME280;7880;50.110;9.372;2023-11-21T11:27:05;8.783073652000166;;;8.625;100.0
15558;BME280;7880;50.110;9.372;2023-11-21T11:32:25;9.181408488942543;;;8.875;100.0
15558;BME280;7880;50.110;9.372;2023-11-21T11:37:17;9.055352964345365;;;9.0;100.0
15558;BME280;7880;50.110;9.372;2023-11-21T11:42:16;9.050310747144977;;;8.875;100.0
15558;BME280;7880;50.110;9.372;2023-11-21T11:47:22;8.878875535499537;;;8.812;100.0
15558;BME280;7880;50.110;9.372;2023-11-21T11:52:40;9.020057450054447;;;8.875;100.0
15558;BME280;7880;50.110;9.372;2023-11-21T11:57:30;8.808284663787344;;;8.75;100.0
15558;BME280;7880;50.110;9.372;2023-11-21T12:02:34;8.788115853775526;;;8.687;100.0
15558;BME280;7880;50.110;9.372;2023-11-21T12:07:42;8.697356266347924;;;8.625;100.0
15558;BME280;7880;50.110;9.372;2023-11-21T12:12:36;8.707440660294377;;;8.625;100.0
15558;BME280;7880;50.110;9.372;2023-11-21T12:17:45;8.798200258199358;;;8.687;100.0
15558;BME280;7880;50.110;9.372;2023-11-21T12:22:45;8.924255411722697;;;8.75;100.0
15558;BME280;7880;50.110;9.372;2023-11-21T12:27:52;8.68222967761103;;;8.625;100.0
15558;BME280;7880;50.110;9.372;2023-11-21T12:32:52;8.702398463175632;;;8.562;100.0
15558;BME280;7880;50.110;9.372;2023-11-21T12:37:59;8.894002158287913;;;8.687;100.0
15558;BME280;7880;50.110;9.372;2023-11-21T12:42:55;8.868791121762479;;;8.75;100.0
15558;BME280;7880;50.110;9.372;2023-11-21T12:48:01;8.788115853775526;;;8.687;100.0
15558;BME280;7880;50.110;9.372;2023-11-21T12:53:04;8.747778247721726;;;8.625;100.0
15558;BME280;7880;50.110;9.372;2023-11-21T12:58:10;8.747778247721726;;;8.625;100.0
15558;BME280;7880;50.110;9.372;2023-11-21T13:03:16;8.5360061215295;;;8.5;100.0
15558;BME280;7880;50.110;9.372;2023-11-21T13:08:18;8.561217062012293;;;8.437;100.0
15558;BME280;7880;50.110;9.372;2023-11-21T13:13:18;8.566259250981966;;;8.437;100.0
15558;BME280;7880;50.110;9.372;2023-11-21T13:18:22;8.530963934306055;;;8.437;100.0
15558;BME280;7880;50.110;9.372;2023-11-21T13:23:21;8.495668631891022;;;8.437;100.0
15558;BME280;7880;50.110;9.372;2023-11-21T13:28:25;8.425078069843584;;;8.312;100.0
15558;BME280;7880;50.110;9.372;2023-11-21T13:33:28;8.38474063142785;;;8.25;100.0
15558;BME280;7880;50.110;9.372;2023-11-21T13:38:34;8.35952974187676;;;8.25;100.0
15558;BME280;7880;50.110;9.372;2023-11-21T13:43:32;8.425078069843584;;;8.25;100.0
15558;BME280;7880;50.110;9.372;2023-11-21T13:48:42;8.38474063142785;;;8.25;100.0
15558;BME280;7880;50.110;9.372;2023-11-21T13:53:43;8.21330672596232;;;8.187;100.0
15558;BME280;7880;50.110;9.372;2023-11-21T13:58:51;8.30406581047573;;;8.187;100.0
15558;BME280;7880;50.110;9.372;2023-11-21T14:03:52;8.248601914290338;;;8.125;100.0
15558;BME280;7880;50.110;9.372;2023-11-21T14:08:50;8.208264557365329;;;8.125;100.0
15558;BME280;7880;50.110;9.372;2023-11-21T14:13:59;8.117505572387017;;;8.062;100.0
15558;BME280;7880;50.110;9.372;2023-11-21T14:19:04;8.072126115259016;;;8.062;100.0
15558;BME280;7880;50.110;9.372;2023-11-21T14:24:01;7.976325116516091;;;7.937;100.0
15558;BME280;7880;50.110;9.372;2023-11-21T14:29:05;8.072126115259016;;;7.937;100.0
15558;BME280;7880;50.110;9.372;2023-11-21T14:34:08;7.971282961597899;;;7.875;100.0
15558;BME280;7880;50.110;9.372;2023-11-21T14:39:23;8.031788839824731;;;7.875;100.0
15558;BME280;7880;50.110;9.372;2023-11-21T14:44:16;7.845229183230549;;;7.812;100.0
15558;BME280;7880;50.110;9.372;2023-11-21T14:49:19;7.759512717841426;;;7.687;100.0
15558;BME280;7880;50.110;9.372;2023-11-21T14:54:39;7.784723434224725;;;7.687;100.0
15558;BME280;7880;50.110;9.372;2023-11-21T14:59:27;7.764554860536009;;;7.687;100.0
15558;BME280;7880;50.110;9.372;2023-11-21T15:04:36;7.739344149973476;;;7.625;100.0
15558;BME280;7880;50.110;9.372;2023-11-21T15:09:46;7.658669925067807;;;7.625;100.0
15558;BME280;7880;50.110;9.372;2023-11-21T15:14:41;7.754470575437881;;;7.625;100.0
15558;BME280;7880;50.110;9.372;2023-11-21T15:19:45;7.850271330872784;;;7.687;100.0
15558;BME280;7880;50.110;9.372;2023-11-21T15:24:47;7.76959700352163;;;7.687;100.0
15558;BME280;7880;50.110;9.372;2023-11-21T15:29:56;7.76959700352163;;;7.625;100.0
15558;BME280;7880;50.110;9.372;2023-11-21T15:33:31;7.759512717841426;;;7.625;100.0
15558;BME280;7880;50.110;9.372;2023-11-21T15:38:33;7.6788384743093046;;;7.562;100.0
15558;BME280;7880;50.110;9.372;2023-11-21T15:43:37;7.668754199106479;;;7.562;100.0
15558;BME280;7880;50.110;9.372;2023-11-21T15:48:44;7.5830379068851474;;;7.5;100.0
15558;BME280;7880;50.110;9.372;2023-11-21T15:53:45;7.577995774667943;;;7.5;100.0
15558;BME280;7880;50.110;9.372;2023-11-21T15:58:47;7.542700857296586;;;7.437;100.0
15558;BME280;7880;50.110;9.372;2023-11-21T16:03:51;7.512448082328774;;;7.437;100.0
15558;BME280;7880;50.110;9.372;2023-11-21T16:08:53;7.51749021076248;;;7.437;100.0
15558;BME280;7880;50.110;9.372;2023-11-21T16:13:56;7.487237444525817;;;7.375;100.0
15558;BME280;7880;50.110;9.372;2023-11-21T16:19:05;7.451942563825287;;;7.375;100.0
15558;BME280;7880;50.110;9.372;2023-11-21T16:24:04;7.366226484352955;;;7.312;100.0
15558;BME280;7880;50.110;9.372;2023-11-21T16:29:07;7.2603420317173;;;7.25;100.0
15558;BME280;7880;50.110;9.372;2023-11-21T16:34:37;7.214963019877905;;;7.187;100.0
15558;BME280;7880;50.110;9.372;2023-11-21T16:39:19;7.325889534881571;;;7.25;100.0
15558;BME280;7880;50.110;9.372;2023-11-21T16:44:30;7.396479208680103;;;7.312;100.0
15558;BME280;7880;50.110;9.372;2023-11-21T16:49:29;7.401521330419928;;;7.25;100.0
15558;BME280;7880;50.110;9.372;2023-11-21T16:54:30;7.275468374235788;;;7.187;100.0
15558;BME280;7880;50.110;9.372;2023-11-21T16:59:35;7.275468374235788;;;7.187;100.0
15558;BME280;7880;50.110;9.372;2023-11-21T17:04:43;7.87548207344953;;;7.625;100.0
15558;BME280;7880;50.110;9.372;2023-11-21T17:09:46;7.456984688766534;;;7.312;100.0
15558;BME280;7880;50.110;9.372;2023-11-21T17:20:08;7.2855526040366385;;;7.25;100.0
15558;BME280;7880;50.110;9.372;2023-11-21T17:25:02;7.446900439175079;;;7.375;100.0
15558;BME280;7880;50.110;9.372;2023-11-21T17:30:04;7.456984688766534;;;7.375;100.0
15558;BME280;7880;50.110;9.372;2023-11-21T17:35:08;7.436816190747777;;;7.375;100.0
15558;BME280;7880;50.110;9.372;2023-11-21T17:40:13;7.462026813998818;;;7.375;100.0
15558;BME280;7880;50.110;9.372;2023-11-21T17:45:20;7.366226484352955;;;7.312;100.0
15558;BME280;7880;50.110;9.372;2023-11-21T17:50:24;7.406563452450792;;;7.312;100.0
15558;BME280;7880;50.110;9.372;2023-11-21T17:55:24;7.421689820289612;;;7.312;100.0
15558;BME280;7880;50.110;9.372;2023-11-21T18:00:33;7.3611843646503985;;;7.312;100.0
15558;BME280;7880;50.110;9.372;2023-11-21T18:05:37;7.456984688766534;;;7.375;100.0
15558;BME280;7880;50.110;9.372;2023-11-21T18:10:37;7.411605574772693;;;7.312;100.0
15558;BME280;7880;50.110;9.372;2023-11-21T18:15:58;7.3611843646503985;;;7.25;100.0
15558;BME280;7880;50.110;9.372;2023-11-21T18:20:57;7.401521330419928;;;7.25;100.0
15558;BME280;7880;50.110;9.372;2023-11-21T18:26:02;7.3611843646503985;;;7.25;100.0
15558;BME280;7880;50.110;9.372;2023-11-21T18:31:20;7.416647697385633;;;7.312;100.0
15558;BME280;7880;50.110;9.372;2023-11-21T18:36:21;7.3763107246311845;;;7.25;100.0
15558;BME280;7880;50.110;9.372;2023-11-21T18:41:32;7.325889534881571;;;7.25;100.0
15558;BME280;7880;50.110;9.372;2023-11-21T18:46:35;7.341015888750553;;;7.187;100.0
15558;BME280;7880;50.110;9.372;2023-11-21T18:51:45;7.078826125804335;;;7.062;100.0
15558;BME280;7880;50.110;9.372;2023-11-21T18:56:38;7.008236708701588;;;6.875;100.0
15558;BME280;7880;50.110;9.372;2023-11-21T19:01:54;6.690585037652636;;;6.687;100.0
15558;BME280;7880;50.110;9.372;2023-11-21T19:06:47;6.337640091270441;;;6.375;100.0
15558;BME280;7880;50.110;9.372;2023-11-21T19:11:53;6.0956215236859865;;;6.062;100.0
15558;BME280;7880;50.110;9.372;2023-11-21T19:16:57;6.004864733718568;;;6.0;100.0
15558;BME280;7880;50.110;9.372;2023-11-21T19:21:59;5.9191500742221255;;;5.937;100.0
15558;BME280;7880;50.110;9.372;2023-11-21T19:27:03;5.6468805372715;;;5.687;100.0
15558;BME280;7880;50.110;9.372;2023-11-21T19:32:05;5.515788099938073;;;5.562;100.0
15558;BME280;7880;50.110;9.372;2023-11-21T19:37:11;5.40990589033463;;;5.437;100.0
15558;BME280;7880;50.110;9.372;2023-11-21T19:42:17;5.445199945941567;;;5.437;100.0
15558;BME280;7880;50.110;9.372;2023-11-21T19:47:14;5.304023809079081;;;5.25;100.0
15558;BME280;7880;50.110;9.372;2023-11-21T19:52:18;5.304023809079081;;;5.25;100.0
15558;BME280;7880;50.110;9.372;2023-11-21T19:57:21;5.117469978198642;;;5.125;100.0
15558;BME280;7880;50.110;9.372;2023-11-21T20:02:24;5.218309837306151;;;5.125;100.0
15558;BME280;7880;50.110;9.372;2023-11-21T20:07:29;5.329233816784108;;;5.187;100.0
15558;BME280;7880;50.110;9.372;2023-11-21T20:12:30;5.253603815496899;;;5.125;100.0
15558;BME280;7880;50.110;9.372;2023-11-21T20:17:38;5.263687811885029;;;5.25;100.0
15558;BME280;7880;50.110;9.372;2023-11-21T20:22:38;5.112427988299169;;;5.0;100.0
15558;BME280;7880;50.110;9.372;2023-11-21T20:27:43;4.78469926911057;;;4.812;100.0
15558;BME280;7880;50.110;9.372;2023-11-21T20:32:51;4.739321543369442;;;4.687;100.0
15558;BME280;7880;50.110;9.372;2023-11-21T20:37:40;4.925874566618586;;;4.812;100.0
15558;BME280;7880;50.110;9.372;2023-11-21T20:43:00;4.794783211365575;;;4.687;100.0
15558;BME280;7880;50.110;9.372;2023-11-21T20:47:53;4.789741240092553;;;4.75;100.0
15558;BME280;7880;50.110;9.372;2023-11-21T20:52:57;4.7040277729800435;;;4.625;100.0
15558;BME280;7880;50.110;9.372;2023-11-21T20:58:00;4.739321543369442;;;4.625;100.0
15558;BME280;7880;50.110;9.372;2023-11-21T21:03:00;4.7040277729800435;;;4.687;100.0
15558;BME280;7880;50.110;9.372;2023-11-21T21:08:03;4.82503504511551;;;4.75;100.0
15558;BME280;7880;50.110;9.372;2023-11-21T21:13:06;4.341006962402025;;;4.375;100.0
15558;BME280;7880;50.110;9.372;2023-11-21T21:18:10;4.325881128036417;;;4.312;100.0
15558;BME280;7880;50.110;9.372;2023-11-21T21:23:19;4.361174745630706;;;4.312;100.0
15558;BME280;7880;50.110;9.372;2023-11-21T21:28:18;4.310755296290154;;;4.25;100.0
15558;BME280;7880;50.110;9.372;2023-11-21T21:33:19;4.310755296290154;;;4.25;100.0
15558;BME280;7880;50.110;9.372;2023-11-21T21:38:30;4.1242035867879165;;;4.125;100.0
15558;BME280;7880;50.110;9.372;2023-11-21T21:43:32;4.230084237881238;;;4.187;100.0
15558;BME280;7880;50.110;9.372;2023-11-21T21:48:30;4.341006962402025;;;4.25;100.0
15558;BME280;7880;50.110;9.372;2023-11-21T21:53:33;4.199832610186422;;;4.187;100.0
15558;BME280;7880;50.110;9.372;2023-11-21T21:58:37;4.376300586108118;;;4.125;100.0
15558;BME280;7880;50.110;9.372;2023-11-21T22:03:40;4.245210055657663;;;4.187;100.0
15558;BME280;7880;50.110;9.372;2023-11-21T22:08:44;4.295629467163235;;;4.25;100.0
15558;BME280;7880;50.110;9.372;2023-11-21T22:13:48;4.290587524703005;;;4.187;100.0
15558;BME280;7880;50.110;9.372;2023-11-21T22:18:56;4.3964683774858715;;;4.25;100.0
15558;BME280;7880;50.110;9.372;2023-11-21T22:23:56;4.406552274920978;;;4.25;100.0
15558;BME280;7880;50.110;9.372;2023-11-21T22:28:56;4.341006962402025;;;4.25;100.0
15558;BME280;7880;50.110;9.372;2023-11-21T22:33:59;4.08891006494523;;;4.062;100.0
15558;BME280;7880;50.110;9.372;2023-11-21T22:39:05;3.7813528353581205;;;3.875;100.0
15558;BME280;7880;50.110;9.372;2023-11-21T22:44:10;3.937652275717119;;;3.812;100.0
15558;BME280;7880;50.110;9.372;2023-11-21T22:49:11;4.15949712289148;;;4.062;100.0
15558;BME280;7880;50.110;9.372;2023-11-21T22:54:22;3.957819965813542;;;3.937;100.0
15558;BME280;7880;50.110;9.372;2023-11-21T22:59:18;4.098993926873663;;;4.0;100.0
15558;BME280;7880;50.110;9.372;2023-11-21T23:04:24;3.776310922583798;;;3.687;100.0
15558;BME280;7880;50.110;9.372;2023-11-21T23:09:25;3.826730063423747;;;3.812;100.0
15558;BME280;7880;50.110;9.372;2023-11-21T23:14:28;3.912442669644952;;;3.812;100.0
15558;BME280;7880;50.110;9.372;2023-11-21T23:19:31;3.8216881480300797;;;3.75;100.0
15558;BME280;7880;50.110;9.372;2023-11-21T23:24:33;3.614969867473701;;;3.5;100.0
15558;BME280;7880;50.110;9.372;2023-11-21T23:29:43;3.7158079919929152;;;3.562;100.0
15558;BME280;7880;50.110;9.372;2023-11-21T23:34:49;3.453629110386828;;;3.5;100.0
15558;BME280;7880;50.110;9.372;2023-11-21T23:39:49;3.48892237553373;;;3.437;100.0
15558;BME280;7880;50.110;9.372;2023-11-21T23:44:50;3.125906615052372;;;3.062;100.0
15558;BME280;7880;50.110;9.372;2023-11-21T23:49:57;3.095655369781889;;;3.125;100.0
15558;BME280;7880;50.110;9.372;2023-11-21T23:54:56;3.1914510157483162;;;3.187;100.0
15558;BME280;7880;50.110;9.372;2023-11-21T23:59:59;3.4435453229642006;;;3.375;100.0
